sensor_id;sensor_type;location;lat;lon;timestamp;P1;durP1;ratioP1;P2;durP2;ratioP2
5349;SDS011;2697;42.144;24.794;2023-07-13T00:01:59;25.67;;;12.00;;
5349;SDS011;2697;42.144;24.794;2023-07-13T00:04:25;30.20;;;13.10;;
5349;SDS011;2697;42.144;24.794;2023-07-13T00:06:51;29.13;;;13.27;;
5349;SDS011;2697;42.144;24.794;2023-07-13T00:09:17;19.97;;;12.50;;
5349;SDS011;2697;42.144;24.794;2023-07-13T00:11:43;24.73;;;12.20;;
5349;SDS011;2697;42.144;24.794;2023-07-13T00:14:10;24.43;;;11.57;;
5349;SDS011;2697;42.144;24.794;2023-07-13T00:16:37;42.90;;;14.90;;
5349;SDS011;2697;42.144;24.794;2023-07-13T00:19:03;26.67;;;12.53;;
5349;SDS011;2697;42.144;24.794;2023-07-13T00:21:30;18.27;;;10.70;;
5349;SDS011;2697;42.144;24.794;2023-07-13T00:23:55;21.80;;;12.60;;
5349;SDS011;2697;42.144;24.794;2023-07-13T00:26:21;18.37;;;11.30;;
5349;SDS011;2697;42.144;24.794;2023-07-13T00:28:46;22.40;;;10.83;;
5349;SDS011;2697;42.144;24.794;2023-07-13T00:31:12;34.93;;;14.97;;
5349;SDS011;2697;42.144;24.794;2023-07-13T00:33:39;33.33;;;14.27;;
5349;SDS011;2697;42.144;24.794;2023-07-13T00:36:05;22.77;;;13.23;;
5349;SDS011;2697;42.144;24.794;2023-07-13T00:38:31;21.60;;;11.97;;
5349;SDS011;2697;42.144;24.794;2023-07-13T00:40:56;24.33;;;13.00;;
5349;SDS011;2697;42.144;24.794;2023-07-13T00:43:23;36.87;;;16.40;;
5349;SDS011;2697;42.144;24.794;2023-07-13T00:48:20;25.70;;;12.63;;
5349;SDS011;2697;42.144;24.794;2023-07-13T00:50:47;24.00;;;12.03;;
5349;SDS011;2697;42.144;24.794;2023-07-13T00:53:16;19.90;;;11.77;;
5349;SDS011;2697;42.144;24.794;2023-07-13T00:55:42;20.43;;;10.93;;
5349;SDS011;2697;42.144;24.794;2023-07-13T00:58:08;27.90;;;12.20;;
5349;SDS011;2697;42.144;24.794;2023-07-13T01:00:37;25.33;;;11.73;;
5349;SDS011;2697;42.144;24.794;2023-07-13T01:03:04;17.13;;;10.73;;
5349;SDS011;2697;42.144;24.794;2023-07-13T01:05:30;20.17;;;10.70;;
5349;SDS011;2697;42.144;24.794;2023-07-13T01:07:57;29.97;;;13.43;;
5349;SDS011;2697;42.144;24.794;2023-07-13T01:10:25;35.50;;;12.97;;
5349;SDS011;2697;42.144;24.794;2023-07-13T01:13:11;18.73;;;11.80;;
5349;SDS011;2697;42.144;24.794;2023-07-13T01:18:07;30.07;;;13.80;;
5349;SDS011;2697;42.144;24.794;2023-07-13T01:20:36;27.00;;;13.07;;
5349;SDS011;2697;42.144;24.794;2023-07-13T01:23:03;23.57;;;12.83;;
5349;SDS011;2697;42.144;24.794;2023-07-13T01:25:31;39.17;;;13.00;;
5349;SDS011;2697;42.144;24.794;2023-07-13T01:27:57;35.80;;;12.70;;
5349;SDS011;2697;42.144;24.794;2023-07-13T01:30:22;30.70;;;12.17;;
5349;SDS011;2697;42.144;24.794;2023-07-13T01:32:47;26.73;;;14.00;;
5349;SDS011;2697;42.144;24.794;2023-07-13T01:35:13;35.40;;;15.93;;
5349;SDS011;2697;42.144;24.794;2023-07-13T01:37:38;31.03;;;16.07;;
5349;SDS011;2697;42.144;24.794;2023-07-13T01:40:04;29.50;;;15.80;;
5349;SDS011;2697;42.144;24.794;2023-07-13T01:42:30;27.80;;;16.73;;
5349;SDS011;2697;42.144;24.794;2023-07-13T01:44:55;27.13;;;15.23;;
5349;SDS011;2697;42.144;24.794;2023-07-13T01:47:22;28.00;;;16.00;;
5349;SDS011;2697;42.144;24.794;2023-07-13T01:49:48;32.93;;;16.00;;
5349;SDS011;2697;42.144;24.794;2023-07-13T01:52:15;45.90;;;17.30;;
5349;SDS011;2697;42.144;24.794;2023-07-13T01:54:40;38.10;;;17.83;;
5349;SDS011;2697;42.144;24.794;2023-07-13T01:57:05;30.70;;;15.30;;
5349;SDS011;2697;42.144;24.794;2023-07-13T01:59:31;33.13;;;16.47;;
5349;SDS011;2697;42.144;24.794;2023-07-13T02:01:58;39.17;;;16.23;;
5349;SDS011;2697;42.144;24.794;2023-07-13T02:04:23;43.87;;;15.53;;
5349;SDS011;2697;42.144;24.794;2023-07-13T02:06:49;27.10;;;12.73;;
5349;SDS011;2697;42.144;24.794;2023-07-13T02:09:14;33.63;;;13.97;;
5349;SDS011;2697;42.144;24.794;2023-07-13T02:11:40;24.63;;;13.93;;
5349;SDS011;2697;42.144;24.794;2023-07-13T02:14:05;31.07;;;17.13;;
5349;SDS011;2697;42.144;24.794;2023-07-13T02:16:30;27.13;;;11.63;;
5349;SDS011;2697;42.144;24.794;2023-07-13T02:18:56;24.40;;;12.80;;
5349;SDS011;2697;42.144;24.794;2023-07-13T02:21:22;26.10;;;12.63;;
5349;SDS011;2697;42.144;24.794;2023-07-13T02:23:49;24.40;;;13.37;;
5349;SDS011;2697;42.144;24.794;2023-07-13T02:26:15;32.90;;;13.30;;
5349;SDS011;2697;42.144;24.794;2023-07-13T02:28:41;21.70;;;13.00;;
5349;SDS011;2697;42.144;24.794;2023-07-13T02:31:10;28.57;;;12.53;;
5349;SDS011;2697;42.144;24.794;2023-07-13T02:33:38;21.63;;;14.10;;
5349;SDS011;2697;42.144;24.794;2023-07-13T02:36:03;21.43;;;11.93;;
5349;SDS011;2697;42.144;24.794;2023-07-13T02:38:30;27.63;;;14.20;;
5349;SDS011;2697;42.144;24.794;2023-07-13T02:40:58;28.20;;;13.67;;
5349;SDS011;2697;42.144;24.794;2023-07-13T02:43:24;39.00;;;13.23;;
5349;SDS011;2697;42.144;24.794;2023-07-13T02:45:50;18.40;;;12.07;;
5349;SDS011;2697;42.144;24.794;2023-07-13T02:48:15;33.13;;;14.50;;
5349;SDS011;2697;42.144;24.794;2023-07-13T02:50:40;28.20;;;13.27;;
5349;SDS011;2697;42.144;24.794;2023-07-13T02:53:06;39.87;;;13.37;;
5349;SDS011;2697;42.144;24.794;2023-07-13T02:55:31;33.27;;;15.53;;
5349;SDS011;2697;42.144;24.794;2023-07-13T02:57:56;26.57;;;13.80;;
5349;SDS011;2697;42.144;24.794;2023-07-13T03:00:22;31.23;;;14.50;;
5349;SDS011;2697;42.144;24.794;2023-07-13T03:02:48;34.37;;;15.70;;
5349;SDS011;2697;42.144;24.794;2023-07-13T03:05:13;30.40;;;14.00;;
5349;SDS011;2697;42.144;24.794;2023-07-13T03:07:41;30.60;;;14.20;;
5349;SDS011;2697;42.144;24.794;2023-07-13T03:10:07;28.43;;;13.83;;
5349;SDS011;2697;42.144;24.794;2023-07-13T03:12:33;23.63;;;13.83;;
5349;SDS011;2697;42.144;24.794;2023-07-13T03:14:58;25.07;;;13.57;;
5349;SDS011;2697;42.144;24.794;2023-07-13T03:17:24;29.70;;;13.27;;
5349;SDS011;2697;42.144;24.794;2023-07-13T03:19:49;31.83;;;13.07;;
5349;SDS011;2697;42.144;24.794;2023-07-13T03:22:16;29.43;;;14.67;;
5349;SDS011;2697;42.144;24.794;2023-07-13T03:24:42;20.70;;;11.73;;
5349;SDS011;2697;42.144;24.794;2023-07-13T03:27:08;23.37;;;10.53;;
5349;SDS011;2697;42.144;24.794;2023-07-13T03:29:33;25.93;;;13.70;;
5349;SDS011;2697;42.144;24.794;2023-07-13T03:31:59;27.90;;;12.27;;
5349;SDS011;2697;42.144;24.794;2023-07-13T03:34:24;30.03;;;13.57;;
5349;SDS011;2697;42.144;24.794;2023-07-13T03:36:50;32.03;;;13.30;;
5349;SDS011;2697;42.144;24.794;2023-07-13T03:39:15;19.43;;;9.77;;
5349;SDS011;2697;42.144;24.794;2023-07-13T03:41:41;20.67;;;9.80;;
5349;SDS011;2697;42.144;24.794;2023-07-13T03:44:06;29.07;;;9.63;;
5349;SDS011;2697;42.144;24.794;2023-07-13T03:46:32;23.73;;;8.73;;
5349;SDS011;2697;42.144;24.794;2023-07-13T03:48:58;14.77;;;8.77;;
5349;SDS011;2697;42.144;24.794;2023-07-13T03:51:24;25.57;;;9.20;;
5349;SDS011;2697;42.144;24.794;2023-07-13T03:53:49;18.27;;;8.00;;
5349;SDS011;2697;42.144;24.794;2023-07-13T03:56:16;16.83;;;7.77;;
5349;SDS011;2697;42.144;24.794;2023-07-13T03:58:43;16.50;;;7.47;;
5349;SDS011;2697;42.144;24.794;2023-07-13T04:01:10;15.80;;;8.40;;
5349;SDS011;2697;42.144;24.794;2023-07-13T04:03:38;27.63;;;10.73;;
5349;SDS011;2697;42.144;24.794;2023-07-13T04:06:04;40.07;;;11.63;;
5349;SDS011;2697;42.144;24.794;2023-07-13T04:08:34;31.60;;;12.00;;
5349;SDS011;2697;42.144;24.794;2023-07-13T04:11:00;47.30;;;11.00;;
5349;SDS011;2697;42.144;24.794;2023-07-13T04:13:27;25.00;;;13.40;;
5349;SDS011;2697;42.144;24.794;2023-07-13T04:15:53;41.80;;;15.40;;
5349;SDS011;2697;42.144;24.794;2023-07-13T04:18:19;32.33;;;15.43;;
5349;SDS011;2697;42.144;24.794;2023-07-13T04:20:46;45.33;;;16.50;;
5349;SDS011;2697;42.144;24.794;2023-07-13T04:23:12;24.93;;;13.03;;
5349;SDS011;2697;42.144;24.794;2023-07-13T04:25:38;21.27;;;13.00;;
5349;SDS011;2697;42.144;24.794;2023-07-13T04:28:04;26.40;;;14.33;;
5349;SDS011;2697;42.144;24.794;2023-07-13T04:30:30;36.83;;;15.50;;
5349;SDS011;2697;42.144;24.794;2023-07-13T04:32:56;29.13;;;14.47;;
5349;SDS011;2697;42.144;24.794;2023-07-13T04:35:21;27.60;;;13.87;;
5349;SDS011;2697;42.144;24.794;2023-07-13T04:37:50;49.33;;;13.83;;
5349;SDS011;2697;42.144;24.794;2023-07-13T04:40:16;37.03;;;16.30;;
5349;SDS011;2697;42.144;24.794;2023-07-13T04:42:43;40.07;;;14.00;;
5349;SDS011;2697;42.144;24.794;2023-07-13T04:45:10;33.43;;;15.20;;
5349;SDS011;2697;42.144;24.794;2023-07-13T04:47:35;46.23;;;16.70;;
5349;SDS011;2697;42.144;24.794;2023-07-13T04:50:01;34.50;;;17.05;;
5349;SDS011;2697;42.144;24.794;2023-07-13T04:52:26;56.30;;;17.08;;
5349;SDS011;2697;42.144;24.794;2023-07-13T04:54:52;35.97;;;17.08;;
5349;SDS011;2697;42.144;24.794;2023-07-13T04:57:17;52.15;;;21.10;;
5349;SDS011;2697;42.144;24.794;2023-07-13T04:59:43;46.33;;;20.50;;
5349;SDS011;2697;42.144;24.794;2023-07-13T05:02:08;47.88;;;18.95;;
5349;SDS011;2697;42.144;24.794;2023-07-13T05:04:33;45.95;;;18.05;;
5349;SDS011;2697;42.144;24.794;2023-07-13T05:06:59;62.42;;;17.45;;
5349;SDS011;2697;42.144;24.794;2023-07-13T05:09:24;40.28;;;18.30;;
5349;SDS011;2697;42.144;24.794;2023-07-13T05:11:50;42.33;;;16.90;;
5349;SDS011;2697;42.144;24.794;2023-07-13T05:14:15;42.25;;;14.93;;
5349;SDS011;2697;42.144;24.794;2023-07-13T05:16:41;36.67;;;16.65;;
5349;SDS011;2697;42.144;24.794;2023-07-13T05:19:07;41.83;;;15.80;;
5349;SDS011;2697;42.144;24.794;2023-07-13T05:21:33;31.67;;;13.85;;
5349;SDS011;2697;42.144;24.794;2023-07-13T05:23:59;35.72;;;13.80;;
5349;SDS011;2697;42.144;24.794;2023-07-13T05:26:24;50.70;;;13.57;;
5349;SDS011;2697;42.144;24.794;2023-07-13T05:28:49;35.65;;;13.43;;
5349;SDS011;2697;42.144;24.794;2023-07-13T05:31:15;45.72;;;14.68;;
5349;SDS011;2697;42.144;24.794;2023-07-13T05:33:40;40.35;;;13.35;;
5349;SDS011;2697;42.144;24.794;2023-07-13T05:36:06;37.03;;;13.20;;
5349;SDS011;2697;42.144;24.794;2023-07-13T05:38:32;33.00;;;12.02;;
5349;SDS011;2697;42.144;24.794;2023-07-13T05:40:58;30.98;;;10.35;;
5349;SDS011;2697;42.144;24.794;2023-07-13T05:43:24;16.00;;;8.02;;
5349;SDS011;2697;42.144;24.794;2023-07-13T05:45:50;24.05;;;9.52;;
5349;SDS011;2697;42.144;24.794;2023-07-13T05:48:18;17.80;;;9.52;;
5349;SDS011;2697;42.144;24.794;2023-07-13T05:50:43;14.07;;;7.90;;
5349;SDS011;2697;42.144;24.794;2023-07-13T05:53:08;12.55;;;7.68;;
5349;SDS011;2697;42.144;24.794;2023-07-13T05:55:34;19.02;;;7.50;;
5349;SDS011;2697;42.144;24.794;2023-07-13T05:57:59;16.42;;;8.20;;
5349;SDS011;2697;42.144;24.794;2023-07-13T06:00:26;13.40;;;8.07;;
5349;SDS011;2697;42.144;24.794;2023-07-13T06:02:52;14.73;;;7.65;;
5349;SDS011;2697;42.144;24.794;2023-07-13T06:05:18;17.73;;;7.70;;
5349;SDS011;2697;42.144;24.794;2023-07-13T06:07:43;9.65;;;6.90;;
5349;SDS011;2697;42.144;24.794;2023-07-13T06:10:09;15.95;;;7.82;;
5349;SDS011;2697;42.144;24.794;2023-07-13T06:12:34;13.80;;;6.65;;
5349;SDS011;2697;42.144;24.794;2023-07-13T06:15:00;9.27;;;6.85;;
5349;SDS011;2697;42.144;24.794;2023-07-13T06:17:25;11.70;;;7.03;;
5349;SDS011;2697;42.144;24.794;2023-07-13T06:19:51;18.42;;;7.43;;
5349;SDS011;2697;42.144;24.794;2023-07-13T06:22:16;9.02;;;6.45;;
5349;SDS011;2697;42.144;24.794;2023-07-13T06:24:41;8.90;;;6.95;;
5349;SDS011;2697;42.144;24.794;2023-07-13T06:27:07;22.58;;;8.35;;
5349;SDS011;2697;42.144;24.794;2023-07-13T06:29:32;23.70;;;7.57;;
5349;SDS011;2697;42.144;24.794;2023-07-13T06:31:58;13.32;;;7.57;;
5349;SDS011;2697;42.144;24.794;2023-07-13T06:34:23;14.80;;;6.93;;
5349;SDS011;2697;42.144;24.794;2023-07-13T06:36:48;13.45;;;6.30;;
5349;SDS011;2697;42.144;24.794;2023-07-13T06:39:14;12.32;;;7.00;;
5349;SDS011;2697;42.144;24.794;2023-07-13T06:41:39;14.15;;;8.07;;
5349;SDS011;2697;42.144;24.794;2023-07-13T06:44:05;8.52;;;6.85;;
5349;SDS011;2697;42.144;24.794;2023-07-13T06:46:31;7.15;;;6.40;;
5349;SDS011;2697;42.144;24.794;2023-07-13T06:48:56;24.20;;;7.13;;
5349;SDS011;2697;42.144;24.794;2023-07-13T06:51:22;13.70;;;6.95;;
5349;SDS011;2697;42.144;24.794;2023-07-13T06:53:47;11.93;;;6.70;;
5349;SDS011;2697;42.144;24.794;2023-07-13T06:56:13;15.70;;;8.90;;
5349;SDS011;2697;42.144;24.794;2023-07-13T06:58:38;7.25;;;6.43;;
5349;SDS011;2697;42.144;24.794;2023-07-13T07:01:04;17.30;;;8.32;;
5349;SDS011;2697;42.144;24.794;2023-07-13T07:03:30;13.93;;;7.30;;
5349;SDS011;2697;42.144;24.794;2023-07-13T07:06:15;15.95;;;7.18;;
5349;SDS011;2697;42.144;24.794;2023-07-13T07:08:42;8.60;;;5.90;;
5349;SDS011;2697;42.144;24.794;2023-07-13T07:11:09;11.93;;;6.43;;
5349;SDS011;2697;42.144;24.794;2023-07-13T07:13:37;9.32;;;7.10;;
5349;SDS011;2697;42.144;24.794;2023-07-13T07:16:03;7.05;;;6.35;;
5349;SDS011;2697;42.144;24.794;2023-07-13T07:18:28;14.13;;;7.28;;
5349;SDS011;2697;42.144;24.794;2023-07-13T07:20:54;10.68;;;6.75;;
5349;SDS011;2697;42.144;24.794;2023-07-13T07:23:19;9.18;;;5.78;;
5349;SDS011;2697;42.144;24.794;2023-07-13T07:25:45;16.13;;;7.03;;
5349;SDS011;2697;42.144;24.794;2023-07-13T07:28:10;9.38;;;7.65;;
5349;SDS011;2697;42.144;24.794;2023-07-13T07:30:36;8.68;;;6.38;;
5349;SDS011;2697;42.144;24.794;2023-07-13T07:33:03;9.93;;;7.03;;
5349;SDS011;2697;42.144;24.794;2023-07-13T07:35:28;14.05;;;6.88;;
5349;SDS011;2697;42.144;24.794;2023-07-13T07:37:53;10.95;;;6.43;;
5349;SDS011;2697;42.144;24.794;2023-07-13T07:40:19;11.07;;;6.03;;
5349;SDS011;2697;42.144;24.794;2023-07-13T07:42:44;6.43;;;5.75;;
5349;SDS011;2697;42.144;24.794;2023-07-13T07:45:10;12.20;;;7.00;;
5349;SDS011;2697;42.144;24.794;2023-07-13T07:47:36;9.88;;;6.38;;
5349;SDS011;2697;42.144;24.794;2023-07-13T07:50:02;11.90;;;6.28;;
5349;SDS011;2697;42.144;24.794;2023-07-13T07:52:27;13.77;;;7.32;;
5349;SDS011;2697;42.144;24.794;2023-07-13T07:54:53;13.48;;;6.57;;
5349;SDS011;2697;42.144;24.794;2023-07-13T07:57:18;11.23;;;6.50;;
5349;SDS011;2697;42.144;24.794;2023-07-13T07:59:44;23.80;;;6.60;;
5349;SDS011;2697;42.144;24.794;2023-07-13T08:02:09;8.95;;;6.32;;
5349;SDS011;2697;42.144;24.794;2023-07-13T08:04:35;9.82;;;6.80;;
5349;SDS011;2697;42.144;24.794;2023-07-13T08:07:01;7.97;;;6.15;;
5349;SDS011;2697;42.144;24.794;2023-07-13T08:09:27;10.50;;;7.25;;
5349;SDS011;2697;42.144;24.794;2023-07-13T08:11:54;8.60;;;6.60;;
5349;SDS011;2697;42.144;24.794;2023-07-13T08:14:19;16.27;;;7.07;;
5349;SDS011;2697;42.144;24.794;2023-07-13T08:16:45;19.42;;;7.07;;
5349;SDS011;2697;42.144;24.794;2023-07-13T08:19:11;16.42;;;7.15;;
5349;SDS011;2697;42.144;24.794;2023-07-13T08:21:36;17.17;;;7.15;;
5349;SDS011;2697;42.144;24.794;2023-07-13T08:24:02;17.75;;;6.80;;
5349;SDS011;2697;42.144;24.794;2023-07-13T08:26:28;11.27;;;6.60;;
5349;SDS011;2697;42.144;24.794;2023-07-13T08:28:53;12.55;;;6.70;;
5349;SDS011;2697;42.144;24.794;2023-07-13T08:31:18;9.80;;;6.93;;
5349;SDS011;2697;42.144;24.794;2023-07-13T08:33:44;16.88;;;7.07;;
5349;SDS011;2697;42.144;24.794;2023-07-13T08:36:10;12.10;;;7.50;;
5349;SDS011;2697;42.144;24.794;2023-07-13T08:38:36;18.95;;;7.38;;
5349;SDS011;2697;42.144;24.794;2023-07-13T08:41:03;9.45;;;6.65;;
5349;SDS011;2697;42.144;24.794;2023-07-13T08:43:37;9.75;;;7.00;;
5349;SDS011;2697;42.144;24.794;2023-07-13T08:48:53;11.50;;;7.05;;
5349;SDS011;2697;42.144;24.794;2023-07-13T08:54:02;13.82;;;8.68;;
5349;SDS011;2697;42.144;24.794;2023-07-13T08:56:33;19.38;;;7.30;;
5349;SDS011;2697;42.144;24.794;2023-07-13T08:59:00;20.63;;;7.10;;
5349;SDS011;2697;42.144;24.794;2023-07-13T09:01:33;12.95;;;7.35;;
5349;SDS011;2697;42.144;24.794;2023-07-13T09:04:24;15.20;;;7.90;;
5349;SDS011;2697;42.144;24.794;2023-07-13T09:12:02;19.00;;;8.00;;
5349;SDS011;2697;42.144;24.794;2023-07-13T09:14:42;11.02;;;7.50;;
5349;SDS011;2697;42.144;24.794;2023-07-13T09:17:45;15.13;;;7.13;;
5349;SDS011;2697;42.144;24.794;2023-07-13T09:23:05;9.00;;;6.05;;
5349;SDS011;2697;42.144;24.794;2023-07-13T09:25:36;10.23;;;6.10;;
5349;SDS011;2697;42.144;24.794;2023-07-13T09:28:14;23.60;;;7.38;;
5349;SDS011;2697;42.144;24.794;2023-07-13T09:31:04;18.92;;;6.47;;
5349;SDS011;2697;42.144;24.794;2023-07-13T09:33:37;10.13;;;5.93;;
5349;SDS011;2697;42.144;24.794;2023-07-13T09:36:09;9.80;;;7.00;;
5349;SDS011;2697;42.144;24.794;2023-07-13T09:44:17;9.23;;;6.25;;
5349;SDS011;2697;42.144;24.794;2023-07-13T09:46:46;12.30;;;7.85;;
5349;SDS011;2697;42.144;24.794;2023-07-13T09:49:17;16.02;;;6.53;;
5349;SDS011;2697;42.144;24.794;2023-07-13T09:51:43;23.58;;;6.72;;
5349;SDS011;2697;42.144;24.794;2023-07-13T09:54:23;27.75;;;8.88;;
5349;SDS011;2697;42.144;24.794;2023-07-13T09:56:56;20.27;;;7.88;;
5349;SDS011;2697;42.144;24.794;2023-07-13T09:59:24;16.50;;;7.38;;
5349;SDS011;2697;42.144;24.794;2023-07-13T10:01:53;30.77;;;7.60;;
5349;SDS011;2697;42.144;24.794;2023-07-13T10:04:19;15.48;;;8.27;;
5349;SDS011;2697;42.144;24.794;2023-07-13T10:06:47;19.30;;;7.00;;
5349;SDS011;2697;42.144;24.794;2023-07-13T10:09:16;14.88;;;6.88;;
5349;SDS011;2697;42.144;24.794;2023-07-13T10:11:42;12.63;;;7.00;;
5349;SDS011;2697;42.144;24.794;2023-07-13T10:14:16;12.00;;;7.10;;
5349;SDS011;2697;42.144;24.794;2023-07-13T10:16:45;11.02;;;7.20;;
5349;SDS011;2697;42.144;24.794;2023-07-13T10:21:52;7.25;;;6.53;;
5349;SDS011;2697;42.144;24.794;2023-07-13T10:24:25;9.90;;;6.70;;
5349;SDS011;2697;42.144;24.794;2023-07-13T10:27:09;8.23;;;6.25;;
5349;SDS011;2697;42.144;24.794;2023-07-13T10:32:58;13.52;;;6.28;;
5349;SDS011;2697;42.144;24.794;2023-07-13T10:35:25;12.38;;;6.45;;
5349;SDS011;2697;42.144;24.794;2023-07-13T10:37:55;14.73;;;7.30;;
5349;SDS011;2697;42.144;24.794;2023-07-13T10:40:27;32.22;;;8.02;;
5349;SDS011;2697;42.144;24.794;2023-07-13T10:42:59;17.35;;;7.20;;
5349;SDS011;2697;42.144;24.794;2023-07-13T10:45:30;8.60;;;7.20;;
5349;SDS011;2697;42.144;24.794;2023-07-13T10:47:59;7.50;;;5.07;;
5349;SDS011;2697;42.144;24.794;2023-07-13T10:50:26;5.55;;;5.03;;
5349;SDS011;2697;42.144;24.794;2023-07-13T10:52:56;22.98;;;4.65;;
5349;SDS011;2697;42.144;24.794;2023-07-13T10:55:38;8.15;;;5.00;;
5349;SDS011;2697;42.144;24.794;2023-07-13T10:58:24;10.10;;;4.50;;
5349;SDS011;2697;42.144;24.794;2023-07-13T11:08:56;9.38;;;5.18;;
5349;SDS011;2697;42.144;24.794;2023-07-13T11:18:49;8.40;;;6.38;;
5349;SDS011;2697;42.144;24.794;2023-07-13T11:22:01;16.70;;;6.40;;
5349;SDS011;2697;42.144;24.794;2023-07-13T11:24:28;7.53;;;6.35;;
5349;SDS011;2697;42.144;24.794;2023-07-13T11:26:55;16.73;;;6.30;;
5349;SDS011;2697;42.144;24.794;2023-07-13T11:31:56;9.70;;;6.30;;
5349;SDS011;2697;42.144;24.794;2023-07-13T11:36:53;10.55;;;6.80;;
5349;SDS011;2697;42.144;24.794;2023-07-13T11:39:23;8.38;;;5.68;;
5349;SDS011;2697;42.144;24.794;2023-07-13T11:41:56;13.05;;;6.43;;
5349;SDS011;2697;42.144;24.794;2023-07-13T11:44:25;9.63;;;6.43;;
5349;SDS011;2697;42.144;24.794;2023-07-13T11:46:53;6.50;;;5.45;;
5349;SDS011;2697;42.144;24.794;2023-07-13T11:49:26;6.53;;;5.75;;
5349;SDS011;2697;42.144;24.794;2023-07-13T11:51:54;11.10;;;6.07;;
5349;SDS011;2697;42.144;24.794;2023-07-13T11:54:34;8.75;;;5.75;;
5349;SDS011;2697;42.144;24.794;2023-07-13T11:59:51;9.85;;;5.50;;
5349;SDS011;2697;42.144;24.794;2023-07-13T12:04:59;10.48;;;6.55;;
5349;SDS011;2697;42.144;24.794;2023-07-13T12:07:28;7.22;;;5.97;;
5349;SDS011;2697;42.144;24.794;2023-07-13T12:12:46;17.38;;;5.88;;
5349;SDS011;2697;42.144;24.794;2023-07-13T12:15:19;7.70;;;5.07;;
5349;SDS011;2697;42.144;24.794;2023-07-13T12:17:47;8.60;;;5.10;;
5349;SDS011;2697;42.144;24.794;2023-07-13T12:20:17;8.45;;;5.47;;
5349;SDS011;2697;42.144;24.794;2023-07-13T12:22:46;12.60;;;5.68;;
5349;SDS011;2697;42.144;24.794;2023-07-13T12:25:13;13.15;;;5.72;;
5349;SDS011;2697;42.144;24.794;2023-07-13T12:27:40;12.65;;;5.82;;
5349;SDS011;2697;42.144;24.794;2023-07-13T12:30:28;12.55;;;5.55;;
5349;SDS011;2697;42.144;24.794;2023-07-13T12:32:58;6.22;;;4.82;;
5349;SDS011;2697;42.144;24.794;2023-07-13T12:35:26;12.68;;;5.88;;
5349;SDS011;2697;42.144;24.794;2023-07-13T12:37:56;9.60;;;4.50;;
5349;SDS011;2697;42.144;24.794;2023-07-13T12:40:24;16.75;;;5.10;;
5349;SDS011;2697;42.144;24.794;2023-07-13T12:42:53;11.55;;;4.97;;
5349;SDS011;2697;42.144;24.794;2023-07-13T12:47:50;9.43;;;4.90;;
5349;SDS011;2697;42.144;24.794;2023-07-13T12:50:20;8.88;;;4.68;;
5349;SDS011;2697;42.144;24.794;2023-07-13T12:52:51;13.30;;;4.95;;
5349;SDS011;2697;42.144;24.794;2023-07-13T12:55:19;9.38;;;5.10;;
5349;SDS011;2697;42.144;24.794;2023-07-13T12:57:50;7.28;;;4.20;;
5349;SDS011;2697;42.144;24.794;2023-07-13T13:03:17;5.57;;;4.63;;
5349;SDS011;2697;42.144;24.794;2023-07-13T13:05:49;12.95;;;4.50;;
5349;SDS011;2697;42.144;24.794;2023-07-13T13:08:14;10.98;;;4.32;;
5349;SDS011;2697;42.144;24.794;2023-07-13T13:10:41;7.05;;;3.53;;
5349;SDS011;2697;42.144;24.794;2023-07-13T13:13:06;6.90;;;4.40;;
5349;SDS011;2697;42.144;24.794;2023-07-13T13:15:33;6.82;;;3.53;;
5349;SDS011;2697;42.144;24.794;2023-07-13T13:17:59;8.25;;;4.60;;
5349;SDS011;2697;42.144;24.794;2023-07-13T13:20:25;17.17;;;4.53;;
5349;SDS011;2697;42.144;24.794;2023-07-13T13:22:53;13.43;;;5.40;;
5349;SDS011;2697;42.144;24.794;2023-07-13T13:25:18;12.35;;;4.43;;
5349;SDS011;2697;42.144;24.794;2023-07-13T13:27:45;7.70;;;4.30;;
5349;SDS011;2697;42.144;24.794;2023-07-13T13:30:14;18.75;;;4.43;;
5349;SDS011;2697;42.144;24.794;2023-07-13T13:32:41;14.30;;;4.18;;
5349;SDS011;2697;42.144;24.794;2023-07-13T13:35:18;12.90;;;4.78;;
5349;SDS011;2697;42.144;24.794;2023-07-13T13:37:45;13.93;;;4.72;;
5349;SDS011;2697;42.144;24.794;2023-07-13T13:40:20;14.02;;;4.68;;
5349;SDS011;2697;42.144;24.794;2023-07-13T13:42:48;10.88;;;4.38;;
5349;SDS011;2697;42.144;24.794;2023-07-13T13:45:14;17.55;;;5.55;;
5349;SDS011;2697;42.144;24.794;2023-07-13T13:47:41;10.25;;;4.22;;
5349;SDS011;2697;42.144;24.794;2023-07-13T13:50:14;8.85;;;4.18;;
5349;SDS011;2697;42.144;24.794;2023-07-13T13:52:49;16.60;;;4.80;;
5349;SDS011;2697;42.144;24.794;2023-07-13T13:55:19;6.90;;;3.80;;
5349;SDS011;2697;42.144;24.794;2023-07-13T13:57:46;11.98;;;5.05;;
5349;SDS011;2697;42.144;24.794;2023-07-13T14:00:13;11.48;;;4.65;;
5349;SDS011;2697;42.144;24.794;2023-07-13T14:02:40;14.25;;;4.85;;
5349;SDS011;2697;42.144;24.794;2023-07-13T14:05:13;10.20;;;4.85;;
5349;SDS011;2697;42.144;24.794;2023-07-13T14:07:39;8.82;;;4.50;;
5349;SDS011;2697;42.144;24.794;2023-07-13T14:10:10;7.68;;;5.35;;
5349;SDS011;2697;42.144;24.794;2023-07-13T14:12:37;15.15;;;4.75;;
5349;SDS011;2697;42.144;24.794;2023-07-13T14:15:03;17.83;;;6.45;;
5349;SDS011;2697;42.144;24.794;2023-07-13T14:17:29;10.70;;;4.32;;
5349;SDS011;2697;42.144;24.794;2023-07-13T14:19:56;20.60;;;5.32;;
5349;SDS011;2697;42.144;24.794;2023-07-13T14:22:25;9.45;;;4.50;;
5349;SDS011;2697;42.144;24.794;2023-07-13T14:24:52;18.73;;;4.97;;
5349;SDS011;2697;42.144;24.794;2023-07-13T14:27:22;19.05;;;3.80;;
5349;SDS011;2697;42.144;24.794;2023-07-13T14:29:47;10.77;;;5.78;;
5349;SDS011;2697;42.144;24.794;2023-07-13T14:32:13;25.27;;;4.70;;
5349;SDS011;2697;42.144;24.794;2023-07-13T14:34:38;11.38;;;4.22;;
5349;SDS011;2697;42.144;24.794;2023-07-13T14:37:04;10.35;;;3.90;;
5349;SDS011;2697;42.144;24.794;2023-07-13T14:39:30;15.48;;;4.75;;
5349;SDS011;2697;42.144;24.794;2023-07-13T14:41:57;11.40;;;4.22;;
5349;SDS011;2697;42.144;24.794;2023-07-13T14:44:25;11.23;;;4.43;;
5349;SDS011;2697;42.144;24.794;2023-07-13T14:46:55;13.40;;;5.72;;
5349;SDS011;2697;42.144;24.794;2023-07-13T14:49:29;11.60;;;4.88;;
5349;SDS011;2697;42.144;24.794;2023-07-13T14:52:16;17.75;;;4.80;;
5349;SDS011;2697;42.144;24.794;2023-07-13T14:54:44;10.13;;;4.18;;
5349;SDS011;2697;42.144;24.794;2023-07-13T14:57:14;19.65;;;5.65;;
5349;SDS011;2697;42.144;24.794;2023-07-13T14:59:44;17.20;;;4.78;;
5349;SDS011;2697;42.144;24.794;2023-07-13T15:04:49;21.85;;;4.97;;
5349;SDS011;2697;42.144;24.794;2023-07-13T15:07:14;10.05;;;4.70;;
5349;SDS011;2697;42.144;24.794;2023-07-13T15:09:42;12.52;;;3.53;;
5349;SDS011;2697;42.144;24.794;2023-07-13T15:12:07;32.30;;;4.63;;
5349;SDS011;2697;42.144;24.794;2023-07-13T15:14:33;9.15;;;5.05;;
5349;SDS011;2697;42.144;24.794;2023-07-13T15:16:58;17.15;;;5.57;;
5349;SDS011;2697;42.144;24.794;2023-07-13T15:19:25;21.98;;;4.63;;
5349;SDS011;2697;42.144;24.794;2023-07-13T15:21:51;17.50;;;5.15;;
5349;SDS011;2697;42.144;24.794;2023-07-13T15:24:19;14.55;;;5.40;;
5349;SDS011;2697;42.144;24.794;2023-07-13T15:26:45;8.70;;;4.55;;
5349;SDS011;2697;42.144;24.794;2023-07-13T15:29:13;12.13;;;4.95;;
5349;SDS011;2697;42.144;24.794;2023-07-13T15:31:40;13.73;;;4.60;;
5349;SDS011;2697;42.144;24.794;2023-07-13T15:34:13;13.48;;;4.75;;
5349;SDS011;2697;42.144;24.794;2023-07-13T15:36:41;14.27;;;4.43;;
5349;SDS011;2697;42.144;24.794;2023-07-13T15:39:06;9.45;;;4.35;;
5349;SDS011;2697;42.144;24.794;2023-07-13T15:41:35;23.50;;;6.15;;
5349;SDS011;2697;42.144;24.794;2023-07-13T15:44:00;19.23;;;4.88;;
5349;SDS011;2697;42.144;24.794;2023-07-13T15:46:44;21.60;;;6.00;;
5349;SDS011;2697;42.144;24.794;2023-07-13T15:49:10;21.23;;;5.63;;
5349;SDS011;2697;42.144;24.794;2023-07-13T15:51:35;20.65;;;4.93;;
5349;SDS011;2697;42.144;24.794;2023-07-13T15:54:02;27.60;;;5.22;;
5349;SDS011;2697;42.144;24.794;2023-07-13T15:56:33;20.20;;;5.70;;